createdAt,value
2024-03-02T00:01:08.753Z,9.31
2024-03-02T00:03:36.710Z,9.30
2024-03-02T00:06:04.854Z,9.30
2024-03-02T00:08:32.747Z,9.31
2024-03-02T00:11:01.579Z,9.33
2024-03-02T00:13:29.436Z,9.34
2024-03-02T00:15:59.275Z,9.35
2024-03-02T00:18:28.215Z,9.35
2024-03-02T00:20:57.892Z,9.36
2024-03-02T00:23:26.955Z,9.37
2024-03-02T00:25:56.850Z,9.39
2024-03-02T00:28:26.070Z,9.39
2024-03-02T00:31:01.069Z,9.39
2024-03-02T00:33:30.618Z,9.41
2024-03-02T00:35:58.589Z,9.37
2024-03-02T00:38:26.525Z,9.35
2024-03-02T00:40:54.604Z,9.31
2024-03-02T00:43:46.023Z,9.28
2024-03-02T00:46:18.764Z,9.28
2024-03-02T00:48:57.371Z,9.27
2024-03-02T00:51:26.725Z,9.27
2024-03-02T00:53:57.018Z,9.25
2024-03-02T00:56:25.230Z,9.24
2024-03-02T00:58:53.584Z,9.18
2024-03-02T01:01:23.763Z,9.21
2024-03-02T01:03:52.440Z,9.23
2024-03-02T01:06:20.573Z,9.25
2024-03-02T01:08:52.046Z,9.26
2024-03-02T01:11:20.320Z,9.26
2024-03-02T01:13:48.277Z,9.25
2024-03-02T01:16:16.698Z,9.27
2024-03-02T01:18:46.222Z,9.27
2024-03-02T01:21:14.192Z,9.30
2024-03-02T01:23:42.139Z,9.30
2024-03-02T01:26:09.843Z,9.29
2024-03-02T01:28:37.653Z,9.27
2024-03-02T01:31:05.740Z,9.23
2024-03-02T01:33:33.598Z,9.25
2024-03-02T01:36:03.017Z,9.23
2024-03-02T01:38:30.797Z,9.26
2024-03-02T01:40:59.686Z,9.25
2024-03-02T01:43:27.588Z,9.26
2024-03-02T01:45:55.428Z,9.26
2024-03-02T01:48:23.263Z,9.26
2024-03-02T01:50:50.971Z,9.27
2024-03-02T01:53:20.118Z,9.29
2024-03-02T01:55:47.827Z,9.31
2024-03-02T01:58:15.679Z,9.32
2024-03-02T02:00:43.542Z,9.31
2024-03-02T02:03:11.629Z,9.32
2024-03-02T02:05:39.362Z,9.19
2024-03-02T02:08:07.559Z,9.29
2024-03-02T02:10:37.060Z,9.32
2024-03-02T02:13:05.128Z,9.36
2024-03-02T02:15:35.872Z,9.39
2024-03-02T02:18:04.911Z,9.37
2024-03-02T02:20:32.752Z,9.41
2024-03-02T02:23:02.800Z,9.47
2024-03-02T02:25:31.117Z,9.45
2024-03-02T02:27:59.907Z,9.48
2024-03-02T02:30:29.721Z,9.45
2024-03-02T02:32:57.611Z,9.51
2024-03-02T02:35:26.222Z,9.54
2024-03-02T02:37:54.607Z,9.56
2024-03-02T02:40:23.989Z,9.55
2024-03-02T02:42:53.205Z,9.56
2024-03-02T02:45:21.275Z,9.58
2024-03-02T02:47:49.097Z,9.60
2024-03-02T02:50:16.892Z,9.61
2024-03-02T02:52:44.914Z,9.64
2024-03-02T02:55:14.138Z,9.64
2024-03-02T02:57:45.100Z,9.66
2024-03-02T03:00:17.553Z,9.65
2024-03-02T03:02:48.452Z,9.67
2024-03-02T03:05:17.105Z,9.68
2024-03-02T03:07:46.341Z,9.69
2024-03-02T03:10:15.156Z,9.72
2024-03-02T03:12:45.768Z,9.72
2024-03-02T03:15:14.150Z,9.73
2024-03-02T03:17:42.564Z,9.71
2024-03-02T03:20:11.836Z,9.67
2024-03-02T03:22:40.086Z,9.65
2024-03-02T03:25:09.592Z,9.59
2024-03-02T03:27:38.059Z,9.55
2024-03-02T03:30:08.584Z,9.54
2024-03-02T03:32:36.562Z,9.51
2024-03-02T03:35:05.200Z,9.47
2024-03-02T03:37:34.888Z,9.45
2024-03-02T03:40:03.820Z,9.39
2024-03-02T03:42:31.649Z,9.33
2024-03-02T03:44:59.427Z,9.35
2024-03-02T03:47:28.877Z,9.36
2024-03-02T03:49:56.727Z,9.38
2024-03-02T03:52:24.516Z,9.40
2024-03-02T03:54:52.422Z,9.42
2024-03-02T03:57:20.355Z,9.47
2024-03-02T03:59:48.464Z,9.51
2024-03-02T04:02:16.290Z,9.52
2024-03-02T04:04:45.739Z,9.57
2024-03-02T04:07:13.981Z,9.59
2024-03-02T04:09:41.911Z,9.58
2024-03-02T04:12:09.735Z,9.57
2024-03-02T04:14:38.870Z,9.58
2024-03-02T04:17:07.243Z,9.61
2024-03-02T04:19:35.568Z,9.62
2024-03-02T04:22:12.437Z,9.64
2024-03-02T04:24:46.441Z,9.66
2024-03-02T04:27:14.334Z,9.68
2024-03-02T04:29:42.066Z,9.69
2024-03-02T04:32:09.912Z,9.69
2024-03-02T04:34:37.730Z,9.70
2024-03-02T04:37:07.275Z,9.70
2024-03-02T04:39:37.064Z,9.74
2024-03-02T04:42:05.263Z,9.74
2024-03-02T04:44:33.097Z,9.74
2024-03-02T04:47:00.848Z,9.74
2024-03-02T04:49:28.763Z,9.73
2024-03-02T04:51:56.633Z,9.73
2024-03-02T04:54:26.342Z,9.75
2024-03-02T04:56:53.132Z,9.75
2024-03-02T04:59:21.057Z,9.78
2024-03-02T05:01:49.374Z,9.79
2024-03-02T05:04:17.155Z,9.80
2024-03-02T05:06:44.990Z,9.80
2024-03-02T05:09:12.790Z,9.78
2024-03-02T05:12:04.070Z,9.77
2024-03-02T05:14:31.775Z,9.73
2024-03-02T05:16:59.520Z,9.71
2024-03-02T05:19:27.322Z,9.71
2024-03-02T05:21:55.084Z,9.66
2024-03-02T05:24:23.127Z,9.66
2024-03-02T05:26:52.224Z,9.64
2024-03-02T05:29:19.977Z,9.68
2024-03-02T05:31:47.724Z,9.65
2024-03-02T05:34:15.620Z,9.62
2024-03-02T05:36:43.438Z,9.60
2024-03-02T05:39:11.513Z,9.58
2024-03-02T05:41:40.149Z,9.55
2024-03-02T05:44:09.438Z,9.56
2024-03-02T05:46:38.679Z,9.55
2024-03-02T05:49:09.001Z,9.55
2024-03-02T05:51:36.864Z,9.54
2024-03-02T05:54:05.175Z,9.55
2024-03-02T05:56:33.273Z,9.53
2024-03-02T05:59:13.382Z,9.52
2024-03-02T06:01:42.893Z,9.51
2024-03-02T06:04:11.725Z,9.47
2024-03-02T06:06:39.990Z,9.46
2024-03-02T06:09:09.393Z,9.44
2024-03-02T06:11:37.488Z,9.43
2024-03-02T06:14:05.628Z,9.40
2024-03-02T06:16:33.939Z,9.38
2024-03-02T06:19:03.579Z,9.36
2024-03-02T06:21:31.501Z,9.32
2024-03-02T06:23:59.249Z,9.32
2024-03-02T06:26:26.972Z,9.21
2024-03-02T06:28:54.827Z,9.29
2024-03-02T06:31:22.553Z,9.28
2024-03-02T06:33:50.518Z,9.33
2024-03-02T06:36:19.717Z,9.33
2024-03-02T06:38:47.393Z,9.36
2024-03-02T06:41:15.117Z,9.37
2024-03-02T06:43:42.895Z,9.39
2024-03-02T06:46:10.859Z,9.39
2024-03-02T06:48:38.775Z,9.34
2024-03-02T06:51:06.608Z,9.36
2024-03-02T06:53:35.821Z,9.36
2024-03-02T06:56:03.637Z,9.39
2024-03-02T06:58:31.388Z,9.40
2024-03-02T07:00:59.171Z,9.39
2024-03-02T07:03:27.039Z,9.40
2024-03-02T07:05:54.832Z,9.38
2024-03-02T07:08:22.569Z,9.41
2024-03-02T07:10:51.722Z,9.40
2024-03-02T07:13:19.498Z,9.40
2024-03-02T07:16:07.242Z,9.39
2024-03-02T07:18:36.137Z,9.37
2024-03-02T07:21:03.973Z,9.41
2024-03-02T07:23:32.722Z,9.41
2024-03-02T07:28:33.595Z,9.41
2024-03-02T07:31:02.033Z,9.41
2024-03-02T07:33:29.890Z,9.43
2024-03-02T07:35:57.882Z,9.44
2024-03-02T07:38:25.757Z,9.45
2024-03-02T07:40:54.089Z,9.47
2024-03-02T07:43:23.535Z,9.50
2024-03-02T07:45:51.430Z,9.51
2024-03-02T07:48:19.248Z,9.53
2024-03-02T07:50:47.107Z,9.57
2024-03-02T07:53:15.402Z,9.61
2024-03-02T07:55:43.397Z,9.63
2024-03-02T07:58:12.678Z,9.67
2024-03-02T08:00:42.624Z,9.68
2024-03-02T08:03:12.451Z,9.73
2024-03-02T08:05:40.822Z,9.73
2024-03-02T08:08:08.807Z,9.82
2024-03-02T08:10:36.955Z,9.86
2024-03-02T08:13:04.964Z,9.91
2024-03-02T08:15:34.259Z,9.98
2024-03-02T08:18:03.554Z,10.02
2024-03-02T08:20:32.625Z,10.06
2024-03-02T08:23:00.641Z,10.10
2024-03-02T08:25:28.532Z,10.16
2024-03-02T08:27:56.390Z,10.13
2024-03-02T08:30:24.209Z,10.14
2024-03-02T08:32:51.986Z,10.10
2024-03-02T08:35:23.447Z,10.12
2024-03-02T08:37:51.291Z,10.15
2024-03-02T08:40:19.564Z,10.20
2024-03-02T08:42:47.947Z,10.27
2024-03-02T08:45:15.849Z,10.35
2024-03-02T08:47:43.638Z,10.39
2024-03-02T08:50:11.408Z,10.48
2024-03-02T08:52:40.664Z,10.55
2024-03-02T08:55:09.257Z,10.64
2024-03-02T08:57:37.095Z,10.72
2024-03-02T09:00:06.301Z,10.86
2024-03-02T09:02:34.067Z,10.86
2024-03-02T09:05:01.915Z,10.81
2024-03-02T09:07:29.936Z,10.81
2024-03-02T09:10:01.882Z,10.81
2024-03-02T09:12:29.683Z,10.85
2024-03-02T09:14:57.458Z,10.90
2024-03-02T09:17:25.420Z,10.93
2024-03-02T09:19:53.985Z,10.95
2024-03-02T09:22:21.828Z,11.01
2024-03-02T09:24:49.670Z,11.07
2024-03-02T09:27:18.963Z,11.12
2024-03-02T09:29:46.913Z,11.20
2024-03-02T09:32:15.681Z,11.26
2024-03-02T09:34:44.407Z,11.25
2024-03-02T09:37:12.186Z,11.28
2024-03-02T09:39:39.908Z,11.30
2024-03-02T09:42:08.330Z,11.35
2024-03-02T09:44:37.501Z,11.39
2024-03-02T09:47:05.722Z,11.38
2024-03-02T09:49:33.580Z,11.36
2024-03-02T09:52:01.463Z,11.35
2024-03-02T09:54:29.905Z,11.35
2024-03-02T09:56:57.650Z,11.37
2024-03-02T09:59:25.416Z,11.47
2024-03-02T10:02:01.632Z,11.56
2024-03-02T10:04:30.414Z,11.67
2024-03-02T10:07:22.175Z,11.82
2024-03-02T10:09:50.844Z,11.93
2024-03-02T10:12:19.740Z,12.03
2024-03-02T10:14:49.723Z,12.10
2024-03-02T10:17:20.089Z,12.14
2024-03-02T10:19:48.645Z,12.16
2024-03-02T10:22:16.536Z,12.13
2024-03-02T10:24:46.275Z,12.15
2024-03-02T10:27:18.380Z,12.27
2024-03-02T10:29:48.511Z,12.34
2024-03-02T10:32:16.922Z,12.43
2024-03-02T10:34:48.315Z,12.50
2024-03-02T10:37:18.230Z,12.55
2024-03-02T10:39:48.626Z,12.49
2024-03-02T10:42:17.035Z,12.72
2024-03-02T10:44:45.383Z,12.80
2024-03-02T10:47:14.604Z,12.84
2024-03-02T10:49:44.273Z,12.88
2024-03-02T10:52:13.394Z,12.88
2024-03-02T10:54:41.798Z,12.88
2024-03-02T10:57:11.602Z,12.91
2024-03-02T10:59:41.075Z,12.98
2024-03-02T11:02:09.607Z,13.04
2024-03-02T11:04:37.677Z,13.09
2024-03-02T11:07:07.354Z,13.16
2024-03-02T11:09:41.360Z,13.24
2024-03-02T11:12:15.699Z,13.32
2024-03-02T11:14:45.385Z,13.32
2024-03-02T11:17:13.919Z,13.37
2024-03-02T11:19:42.029Z,13.38
2024-03-02T11:22:10.540Z,13.43
2024-03-02T11:24:39.753Z,13.47
2024-03-02T11:27:08.818Z,13.52
2024-03-02T11:29:46.785Z,13.53
2024-03-02T11:32:19.559Z,13.52
2024-03-02T11:34:49.232Z,13.55
2024-03-02T11:37:17.207Z,13.56
2024-03-02T11:39:47.627Z,13.61
2024-03-02T11:44:15.169Z,13.73
2024-03-02T11:46:43.022Z,13.84
2024-03-02T11:49:11.017Z,13.97
2024-03-02T11:51:41.135Z,14.08
2024-03-02T11:54:10.946Z,14.11
2024-03-02T11:56:38.619Z,14.17
2024-03-02T11:59:06.966Z,14.22
2024-03-02T12:01:38.329Z,14.30
2024-03-02T12:04:07.536Z,14.29
2024-03-02T12:06:35.355Z,14.35
2024-03-02T12:09:03.648Z,14.39
2024-03-02T12:11:31.429Z,14.41
2024-03-02T12:14:00.355Z,14.44
2024-03-02T12:16:28.114Z,14.49
2024-03-02T12:18:58.249Z,14.55
2024-03-02T12:21:26.090Z,14.62
2024-03-02T12:23:53.954Z,14.60
2024-03-02T12:26:22.146Z,14.56
2024-03-02T12:28:50.030Z,14.54
2024-03-02T12:31:17.920Z,14.51
2024-03-02T12:33:45.712Z,14.50
2024-03-02T12:38:39.606Z,14.57
2024-03-02T12:43:15.899Z,14.62
2024-03-02T12:45:43.759Z,14.63
2024-03-02T12:48:11.537Z,14.69
2024-03-02T12:50:39.318Z,14.68
2024-03-02T12:53:07.051Z,14.76
2024-03-02T12:57:33.386Z,14.82
2024-03-02T13:00:01.563Z,14.87
2024-03-02T13:02:33.016Z,14.93
2024-03-02T13:05:00.780Z,14.97
2024-03-02T13:07:29.004Z,14.99
2024-03-02T13:09:57.772Z,14.98
2024-03-02T13:12:26.667Z,14.88
2024-03-02T13:14:56.045Z,14.80
2024-03-02T14:15:07.098Z,12.53
2024-03-02T14:17:34.874Z,12.92
2024-03-02T14:20:06.768Z,13.23
2024-03-02T14:23:37.381Z,13.59
2024-03-02T14:26:05.523Z,13.84
2024-03-02T14:28:47.870Z,14.03
2024-03-02T14:31:18.962Z,14.22
2024-03-02T14:33:46.803Z,14.34
2024-03-02T14:36:14.838Z,14.45
2024-03-02T14:38:44.456Z,14.55
2024-03-02T14:41:12.294Z,14.64
2024-03-02T14:43:40.052Z,14.74
2024-03-02T14:46:09.479Z,14.83
2024-03-02T14:48:37.479Z,14.91
2024-03-02T14:51:05.730Z,14.99
2024-03-02T14:53:33.490Z,15.05
2024-03-02T14:56:02.674Z,15.09
2024-03-02T14:58:30.345Z,15.17
2024-03-02T15:00:58.400Z,15.17
2024-03-02T15:03:26.275Z,15.15
2024-03-02T15:05:54.892Z,15.13
2024-03-02T15:08:22.645Z,15.05
2024-03-02T15:10:50.428Z,15.07
2024-03-02T15:13:19.581Z,15.03
2024-03-02T15:15:47.494Z,15.02
2024-03-02T15:18:15.321Z,15.00
2024-03-02T15:33:06.237Z,14.86
2024-03-02T15:35:34.266Z,14.74
2024-03-02T15:38:02.031Z,14.63
2024-03-02T15:40:29.803Z,14.56
2024-03-02T15:42:57.632Z,14.49
2024-03-02T15:45:26.043Z,14.43
2024-03-02T15:47:53.806Z,14.39
2024-03-02T15:50:22.959Z,14.35
2024-03-02T15:52:50.714Z,14.36
2024-03-02T15:55:18.518Z,14.35
2024-03-02T15:57:46.407Z,14.34
2024-03-02T16:00:15.084Z,14.30
2024-03-02T16:02:42.860Z,14.30
2024-03-02T16:05:10.855Z,14.28
2024-03-02T16:07:39.953Z,14.28
2024-03-02T16:10:09.048Z,14.30
2024-03-02T16:12:36.899Z,14.27
2024-03-02T16:15:05.293Z,14.23
2024-03-02T16:17:33.078Z,14.19
2024-03-02T16:20:00.787Z,14.17
2024-03-02T16:22:28.557Z,14.13
2024-03-02T16:24:57.656Z,14.10
2024-03-02T16:27:25.731Z,14.07
2024-03-02T16:29:55.498Z,14.03
2024-03-02T16:32:23.237Z,14.02
2024-03-02T16:34:51.575Z,13.99
2024-03-02T16:37:20.601Z,13.99
2024-03-02T16:39:49.701Z,13.95
2024-03-02T16:42:21.075Z,13.93
2024-03-02T16:44:49.522Z,13.93
2024-03-02T16:47:17.395Z,13.94
2024-03-02T16:49:46.385Z,13.93
2024-03-02T16:52:15.998Z,13.91
2024-03-02T16:54:43.857Z,13.87
2024-03-02T16:57:12.590Z,13.88
2024-03-02T16:59:44.099Z,13.86
2024-03-02T17:02:12.216Z,13.86
2024-03-02T17:04:40.057Z,13.82
2024-03-02T17:07:08.030Z,13.82
2024-03-02T17:09:36.085Z,13.80
2024-03-02T17:12:05.584Z,13.81
2024-03-02T17:14:33.284Z,13.78
2024-03-02T17:17:02.493Z,13.78
2024-03-02T17:19:30.431Z,13.74
2024-03-02T17:21:58.321Z,13.74
2024-03-02T17:24:26.168Z,13.70
2024-03-02T17:26:53.918Z,13.68
2024-03-02T17:30:28.893Z,13.61
2024-03-02T17:32:56.596Z,13.61
2024-03-02T17:36:45.762Z,13.56
2024-03-02T17:39:13.499Z,13.56
2024-03-02T17:41:41.230Z,13.56
2024-03-02T17:44:10.336Z,13.54
2024-03-02T17:46:38.016Z,13.52
2024-03-02T17:49:05.764Z,13.50
2024-03-02T17:51:33.596Z,13.47
2024-03-02T17:54:02.749Z,13.42
2024-03-02T17:56:31.479Z,13.43
2024-03-02T17:58:59.625Z,13.41
2024-03-02T18:01:27.398Z,13.40
2024-03-02T18:03:55.144Z,13.35
2024-03-02T18:06:23.066Z,13.38
2024-03-02T18:08:51.062Z,13.37
2024-03-02T18:11:20.608Z,13.36
2024-03-02T18:13:48.396Z,13.34
2024-03-02T18:16:16.747Z,13.36
2024-03-02T18:18:44.609Z,13.37
2024-03-02T18:21:12.404Z,13.37
2024-03-02T18:23:40.081Z,13.35
2024-03-02T18:26:07.813Z,13.32
2024-03-02T18:28:39.150Z,13.33
2024-03-02T18:31:08.436Z,13.32
2024-03-02T18:33:38.548Z,13.30
2024-03-02T18:36:07.435Z,13.31
2024-03-02T18:38:35.177Z,13.30
2024-03-02T18:41:02.916Z,13.28
2024-03-02T18:43:30.627Z,13.27
2024-03-02T18:46:00.926Z,13.28
2024-03-02T18:48:28.988Z,13.30
2024-03-02T18:50:56.806Z,13.29
2024-03-02T18:53:24.523Z,13.31
2024-03-02T18:55:53.101Z,13.31
2024-03-02T18:58:21.179Z,13.30
2024-03-02T19:00:49.130Z,13.28
2024-03-02T19:03:18.274Z,13.28
2024-03-02T19:05:46.028Z,13.29
2024-03-02T19:08:18.601Z,13.30
2024-03-02T19:10:46.361Z,13.31
2024-03-02T19:13:14.084Z,13.31
2024-03-02T19:15:41.934Z,13.31
2024-03-02T19:18:09.853Z,13.32
2024-03-02T19:20:41.586Z,13.31
2024-03-02T19:23:14.720Z,13.32
2024-03-02T19:25:46.044Z,13.27
2024-03-02T19:28:14.433Z,13.30
2024-03-02T19:30:44.985Z,13.29
2024-03-02T19:33:15.537Z,13.28
2024-03-02T19:35:44.679Z,13.29
2024-03-02T19:38:13.883Z,13.30
2024-03-02T19:40:41.720Z,13.28
2024-03-02T19:43:09.567Z,13.31
2024-03-02T19:45:37.368Z,13.30
2024-03-02T19:48:05.359Z,13.30
2024-03-02T19:50:33.252Z,13.31
2024-03-02T19:53:03.900Z,13.31
2024-03-02T19:55:31.686Z,13.30
2024-03-02T19:57:59.441Z,13.28
2024-03-02T20:00:28.325Z,13.30
2024-03-02T20:02:56.137Z,13.30
2024-03-02T20:05:25.343Z,13.30
2024-03-02T20:07:53.036Z,13.30
2024-03-02T20:10:22.326Z,13.30
2024-03-02T20:12:50.131Z,13.27
2024-03-02T20:15:19.874Z,13.27
2024-03-02T20:17:48.421Z,13.25
2024-03-02T20:20:16.936Z,13.24
2024-03-02T20:22:44.776Z,13.21
2024-03-02T20:25:14.166Z,13.18
2024-03-02T20:27:44.607Z,13.15
2024-03-02T20:30:14.064Z,13.12
2024-03-02T20:32:41.920Z,13.11
2024-03-02T20:35:12.704Z,13.08
2024-03-02T20:37:41.103Z,13.05
2024-03-02T20:40:10.037Z,13.04
2024-03-02T20:42:38.558Z,13.01
2024-03-02T20:45:08.657Z,12.97
2024-03-02T20:47:36.422Z,12.94
2024-03-02T20:50:04.376Z,12.93
2024-03-02T20:52:32.154Z,12.93
2024-03-02T20:54:59.947Z,12.90
2024-03-02T20:57:27.663Z,12.85
2024-03-02T20:59:55.951Z,12.84
2024-03-02T21:02:25.321Z,12.83
2024-03-02T21:04:53.073Z,12.82
2024-03-02T21:07:21.815Z,12.82
2024-03-02T21:09:49.730Z,12.80
2024-03-02T21:12:17.520Z,12.78
2024-03-02T21:14:45.254Z,12.75
2024-03-02T21:17:12.999Z,12.75
2024-03-02T21:19:42.037Z,12.73
2024-03-02T21:22:09.822Z,12.72
2024-03-02T21:24:38.248Z,12.69
2024-03-02T21:27:07.800Z,12.65
2024-03-02T21:29:35.685Z,12.65
2024-03-02T21:32:03.450Z,12.62
2024-03-02T21:34:31.151Z,12.60
2024-03-02T21:37:00.218Z,12.60
2024-03-02T21:39:35.968Z,12.58
2024-03-02T21:42:07.993Z,12.54
2024-03-02T21:44:35.689Z,12.52
2024-03-02T21:47:06.853Z,12.50
2024-03-02T21:49:35.000Z,12.48
2024-03-02T21:52:04.644Z,12.48
2024-03-02T21:54:33.316Z,12.42
2024-03-02T21:57:03.483Z,12.41
2024-03-02T21:59:31.564Z,12.41
2024-03-02T22:01:59.564Z,12.39
2024-03-02T22:04:27.393Z,12.39
2024-03-02T22:06:55.559Z,12.39
2024-03-02T22:09:24.770Z,12.36
2024-03-02T22:11:52.513Z,12.35
2024-03-02T22:14:22.013Z,12.33
2024-03-02T22:16:49.774Z,12.29
2024-03-02T22:19:17.539Z,12.24
2024-03-02T22:21:45.392Z,12.26
2024-03-02T22:24:14.817Z,12.24
2024-03-02T22:26:43.956Z,12.23
2024-03-02T22:29:11.747Z,12.22
2024-03-02T22:31:39.553Z,12.20
2024-03-02T22:34:07.411Z,12.10
2024-03-02T22:36:35.248Z,12.18
2024-03-02T22:39:03.009Z,12.18
2024-03-02T22:41:30.778Z,12.14
2024-03-02T22:44:00.325Z,12.10
2024-03-02T22:46:28.110Z,12.09
2024-03-02T22:48:56.272Z,12.08
2024-03-02T22:51:24.345Z,12.08
2024-03-02T22:53:52.158Z,12.08
2024-03-02T22:56:20.844Z,12.06
2024-03-02T22:58:48.535Z,12.09
2024-03-02T23:01:21.428Z,12.04
2024-03-02T23:03:49.395Z,12.08
2024-03-02T23:06:17.181Z,12.08
2024-03-02T23:08:45.399Z,12.09
2024-03-02T23:11:13.415Z,12.08
2024-03-02T23:13:41.778Z,12.08
2024-03-02T23:16:10.059Z,12.10
2024-03-02T23:18:39.371Z,12.08
2024-03-02T23:21:07.824Z,12.08
2024-03-02T23:23:35.582Z,12.05
2024-03-02T23:26:03.797Z,12.02
2024-03-02T23:28:31.522Z,12.04
2024-03-02T23:30:59.840Z,12.05
2024-03-02T23:33:27.628Z,12.08
2024-03-02T23:35:56.778Z,12.08
2024-03-02T23:38:24.518Z,12.07
2024-03-02T23:41:08.986Z,12.06
2024-03-02T23:43:36.079Z,12.07
2024-03-02T23:46:03.825Z,12.08
2024-03-02T23:48:31.580Z,12.09
2024-03-02T23:51:00.903Z,12.07
2024-03-02T23:53:28.668Z,12.07
2024-03-02T23:55:57.727Z,12.07
2024-03-02T23:58:25.523Z,12.05
